sensor_id;sensor_type;location;lat;lon;timestamp;P1;durP1;ratioP1;P2;durP2;ratioP2
47287;SDS011;33020;53.008;13.558;2023-06-26T00:02:00;12.02;;;10.82;;
47287;SDS011;33020;53.008;13.558;2023-06-26T00:04:28;11.05;;;9.63;;
47287;SDS011;33020;53.008;13.558;2023-06-26T00:06:55;11.43;;;10.23;;
47287;SDS011;33020;53.008;13.558;2023-06-26T00:09:25;11.25;;;10.05;;
47287;SDS011;33020;53.008;13.558;2023-06-26T00:11:52;11.77;;;10.57;;
47287;SDS011;33020;53.008;13.558;2023-06-26T00:14:18;11.73;;;10.48;;
47287;SDS011;33020;53.008;13.558;2023-06-26T00:16:49;12.32;;;11.07;;
47287;SDS011;33020;53.008;13.558;2023-06-26T00:19:16;11.80;;;10.63;;
47287;SDS011;33020;53.008;13.558;2023-06-26T00:21:42;11.57;;;10.40;;
47287;SDS011;33020;53.008;13.558;2023-06-26T00:24:16;12.57;;;11.40;;
47287;SDS011;33020;53.008;13.558;2023-06-26T00:26:45;12.02;;;9.82;;
47287;SDS011;33020;53.008;13.558;2023-06-26T00:29:12;11.60;;;10.43;;
47287;SDS011;33020;53.008;13.558;2023-06-26T00:31:39;11.85;;;10.65;;
47287;SDS011;33020;53.008;13.558;2023-06-26T00:34:06;10.98;;;9.82;;
47287;SDS011;33020;53.008;13.558;2023-06-26T00:36:33;11.43;;;10.23;;
47287;SDS011;33020;53.008;13.558;2023-06-26T00:39:00;11.25;;;10.05;;
47287;SDS011;33020;53.008;13.558;2023-06-26T00:41:26;10.38;;;9.45;;
47287;SDS011;33020;53.008;13.558;2023-06-26T00:43:53;10.95;;;9.85;;
47287;SDS011;33020;53.008;13.558;2023-06-26T00:46:20;10.98;;;9.95;;
47287;SDS011;33020;53.008;13.558;2023-06-26T00:48:47;11.13;;;10.00;;
47287;SDS011;33020;53.008;13.558;2023-06-26T00:51:14;11.35;;;10.07;;
47287;SDS011;33020;53.008;13.558;2023-06-26T00:53:41;11.13;;;9.88;;
47287;SDS011;33020;53.008;13.558;2023-06-26T00:56:08;11.18;;;10.07;;
47287;SDS011;33020;53.008;13.558;2023-06-26T00:58:36;12.23;;;11.00;;
47287;SDS011;33020;53.008;13.558;2023-06-26T01:01:03;11.70;;;10.45;;
47287;SDS011;33020;53.008;13.558;2023-06-26T01:03:32;11.95;;;10.75;;
47287;SDS011;33020;53.008;13.558;2023-06-26T01:05:59;11.32;;;10.27;;
47287;SDS011;33020;53.008;13.558;2023-06-26T01:08:26;12.02;;;10.82;;
47287;SDS011;33020;53.008;13.558;2023-06-26T01:10:53;11.82;;;10.55;;
47287;SDS011;33020;53.008;13.558;2023-06-26T01:13:20;11.98;;;10.80;;
47287;SDS011;33020;53.008;13.558;2023-06-26T01:15:46;10.93;;;9.88;;
47287;SDS011;33020;53.008;13.558;2023-06-26T01:18:13;11.32;;;10.23;;
47287;SDS011;33020;53.008;13.558;2023-06-26T01:20:43;12.32;;;11.07;;
47287;SDS011;33020;53.008;13.558;2023-06-26T01:28:22;11.73;;;10.40;;
47287;SDS011;33020;53.008;13.558;2023-06-26T01:30:50;11.80;;;10.60;;
47287;SDS011;33020;53.008;13.558;2023-06-26T01:33:17;12.85;;;10.77;;
47287;SDS011;33020;53.008;13.558;2023-06-26T01:35:44;11.57;;;10.30;;
47287;SDS011;33020;53.008;13.558;2023-06-26T01:38:18;11.63;;;10.52;;
47287;SDS011;33020;53.008;13.558;2023-06-26T01:40:46;11.40;;;10.20;;
47287;SDS011;33020;53.008;13.558;2023-06-26T01:46:18;11.50;;;10.25;;
47287;SDS011;33020;53.008;13.558;2023-06-26T01:48:52;11.55;;;10.45;;
47287;SDS011;33020;53.008;13.558;2023-06-26T01:51:42;11.75;;;10.55;;
47287;SDS011;33020;53.008;13.558;2023-06-26T01:54:15;11.68;;;10.48;;
47287;SDS011;33020;53.008;13.558;2023-06-26T01:56:44;11.65;;;10.45;;
47287;SDS011;33020;53.008;13.558;2023-06-26T01:59:12;11.52;;;10.43;;
47287;SDS011;33020;53.008;13.558;2023-06-26T02:01:41;11.00;;;9.90;;
47287;SDS011;33020;53.008;13.558;2023-06-26T02:04:08;11.70;;;10.60;;
47287;SDS011;33020;53.008;13.558;2023-06-26T02:06:35;11.77;;;10.63;;
47287;SDS011;33020;53.008;13.558;2023-06-26T02:09:01;12.60;;;11.30;;
47287;SDS011;33020;53.008;13.558;2023-06-26T02:11:28;11.57;;;10.38;;
47287;SDS011;33020;53.008;13.558;2023-06-26T02:13:55;12.50;;;11.00;;
47287;SDS011;33020;53.008;13.558;2023-06-26T02:16:22;11.63;;;10.43;;
47287;SDS011;33020;53.008;13.558;2023-06-26T02:18:49;11.95;;;10.77;;
47287;SDS011;33020;53.008;13.558;2023-06-26T02:21:16;13.00;;;11.23;;
47287;SDS011;33020;53.008;13.558;2023-06-26T02:23:43;11.15;;;10.05;;
47287;SDS011;33020;53.008;13.558;2023-06-26T02:26:10;11.68;;;10.52;;
47287;SDS011;33020;53.008;13.558;2023-06-26T02:28:37;11.77;;;10.68;;
47287;SDS011;33020;53.008;13.558;2023-06-26T02:31:04;11.63;;;10.43;;
47287;SDS011;33020;53.008;13.558;2023-06-26T02:33:31;11.70;;;10.50;;
47287;SDS011;33020;53.008;13.558;2023-06-26T02:35:58;11.75;;;10.55;;
47287;SDS011;33020;53.008;13.558;2023-06-26T02:38:25;11.45;;;10.35;;
47287;SDS011;33020;53.008;13.558;2023-06-26T02:40:51;12.10;;;10.90;;
47287;SDS011;33020;53.008;13.558;2023-06-26T02:43:18;11.45;;;10.27;;
47287;SDS011;33020;53.008;13.558;2023-06-26T02:45:45;11.23;;;10.05;;
47287;SDS011;33020;53.008;13.558;2023-06-26T02:48:11;12.02;;;10.82;;
47287;SDS011;33020;53.008;13.558;2023-06-26T02:50:38;11.32;;;10.23;;
47287;SDS011;33020;53.008;13.558;2023-06-26T02:53:05;11.98;;;10.88;;
47287;SDS011;33020;53.008;13.558;2023-06-26T02:55:33;12.57;;;10.70;;
47287;SDS011;33020;53.008;13.558;2023-06-26T02:58:00;11.30;;;10.20;;
47287;SDS011;33020;53.008;13.558;2023-06-26T03:00:27;12.98;;;11.68;;
47287;SDS011;33020;53.008;13.558;2023-06-26T03:02:56;11.05;;;9.95;;
47287;SDS011;33020;53.008;13.558;2023-06-26T03:05:23;12.68;;;10.77;;
47287;SDS011;33020;53.008;13.558;2023-06-26T03:07:50;12.30;;;10.88;;
47287;SDS011;33020;53.008;13.558;2023-06-26T03:10:17;11.85;;;10.50;;
47287;SDS011;33020;53.008;13.558;2023-06-26T03:12:43;10.80;;;9.80;;
47287;SDS011;33020;53.008;13.558;2023-06-26T03:15:10;10.90;;;9.85;;
47287;SDS011;33020;53.008;13.558;2023-06-26T03:17:37;11.10;;;10.00;;
47287;SDS011;33020;53.008;13.558;2023-06-26T03:20:04;10.05;;;8.98;;
47287;SDS011;33020;53.008;13.558;2023-06-26T03:22:33;11.20;;;10.00;;
47287;SDS011;33020;53.008;13.558;2023-06-26T03:25:01;11.20;;;9.68;;
47287;SDS011;33020;53.008;13.558;2023-06-26T03:27:28;11.43;;;10.32;;
47287;SDS011;33020;53.008;13.558;2023-06-26T03:29:55;10.30;;;9.30;;
47287;SDS011;33020;53.008;13.558;2023-06-26T03:32:21;10.15;;;9.23;;
47287;SDS011;33020;53.008;13.558;2023-06-26T03:34:48;10.40;;;9.35;;
47287;SDS011;33020;53.008;13.558;2023-06-26T03:37:15;11.50;;;10.25;;
47287;SDS011;33020;53.008;13.558;2023-06-26T03:39:41;10.23;;;9.23;;
47287;SDS011;33020;53.008;13.558;2023-06-26T03:42:08;11.90;;;10.70;;
47287;SDS011;33020;53.008;13.558;2023-06-26T03:44:35;11.18;;;10.02;;
47287;SDS011;33020;53.008;13.558;2023-06-26T03:47:01;12.38;;;10.13;;
47287;SDS011;33020;53.008;13.558;2023-06-26T03:49:28;12.73;;;10.88;;
47287;SDS011;33020;53.008;13.558;2023-06-26T03:51:55;11.18;;;10.07;;
47287;SDS011;33020;53.008;13.558;2023-06-26T03:54:22;11.07;;;9.90;;
47287;SDS011;33020;53.008;13.558;2023-06-26T03:56:49;11.85;;;10.27;;
47287;SDS011;33020;53.008;13.558;2023-06-26T03:59:15;10.95;;;9.95;;
47287;SDS011;33020;53.008;13.558;2023-06-26T04:01:42;13.40;;;10.35;;
47287;SDS011;33020;53.008;13.558;2023-06-26T04:04:09;12.43;;;11.18;;
47287;SDS011;33020;53.008;13.558;2023-06-26T04:06:35;10.43;;;9.43;;
47287;SDS011;33020;53.008;13.558;2023-06-26T04:09:02;11.15;;;10.05;;
47287;SDS011;33020;53.008;13.558;2023-06-26T04:11:30;11.63;;;10.45;;
47287;SDS011;33020;53.008;13.558;2023-06-26T04:13:57;10.70;;;9.60;;
47287;SDS011;33020;53.008;13.558;2023-06-26T04:16:25;11.65;;;9.85;;
47287;SDS011;33020;53.008;13.558;2023-06-26T04:18:52;11.05;;;10.02;;
47287;SDS011;33020;53.008;13.558;2023-06-26T04:21:19;10.02;;;9.02;;
47287;SDS011;33020;53.008;13.558;2023-06-26T04:23:46;10.85;;;9.43;;
47287;SDS011;33020;53.008;13.558;2023-06-26T04:26:14;11.63;;;10.27;;
47287;SDS011;33020;53.008;13.558;2023-06-26T04:28:41;10.70;;;9.68;;
47287;SDS011;33020;53.008;13.558;2023-06-26T04:31:08;10.80;;;9.70;;
47287;SDS011;33020;53.008;13.558;2023-06-26T04:33:35;12.32;;;9.73;;
47287;SDS011;33020;53.008;13.558;2023-06-26T04:36:05;11.98;;;10.68;;
47287;SDS011;33020;53.008;13.558;2023-06-26T04:38:32;10.38;;;9.35;;
47287;SDS011;33020;53.008;13.558;2023-06-26T04:41:02;12.07;;;10.80;;
47287;SDS011;33020;53.008;13.558;2023-06-26T04:43:29;12.43;;;11.10;;
47287;SDS011;33020;53.008;13.558;2023-06-26T04:45:56;11.35;;;10.10;;
47287;SDS011;33020;53.008;13.558;2023-06-26T04:48:23;12.88;;;11.57;;
47287;SDS011;33020;53.008;13.558;2023-06-26T04:50:49;11.32;;;10.23;;
47287;SDS011;33020;53.008;13.558;2023-06-26T04:53:21;12.43;;;11.13;;
47287;SDS011;33020;53.008;13.558;2023-06-26T04:55:49;11.73;;;10.52;;
47287;SDS011;33020;53.008;13.558;2023-06-26T04:58:16;11.50;;;10.35;;
47287;SDS011;33020;53.008;13.558;2023-06-26T05:00:42;12.57;;;11.27;;
47287;SDS011;33020;53.008;13.558;2023-06-26T05:03:10;12.13;;;10.93;;
47287;SDS011;33020;53.008;13.558;2023-06-26T05:05:38;10.90;;;9.80;;
47287;SDS011;33020;53.008;13.558;2023-06-26T05:08:14;11.40;;;10.32;;
47287;SDS011;33020;53.008;13.558;2023-06-26T05:10:42;12.88;;;10.85;;
47287;SDS011;33020;53.008;13.558;2023-06-26T05:13:08;13.57;;;12.18;;
47287;SDS011;33020;53.008;13.558;2023-06-26T05:15:35;12.95;;;11.52;;
47287;SDS011;33020;53.008;13.558;2023-06-26T05:18:02;13.48;;;12.13;;
47287;SDS011;33020;53.008;13.558;2023-06-26T05:20:28;14.38;;;12.23;;
47287;SDS011;33020;53.008;13.558;2023-06-26T05:22:55;12.55;;;10.77;;
47287;SDS011;33020;53.008;13.558;2023-06-26T05:25:22;11.85;;;10.75;;
47287;SDS011;33020;53.008;13.558;2023-06-26T05:27:50;12.30;;;11.10;;
47287;SDS011;33020;53.008;13.558;2023-06-26T05:30:17;12.02;;;10.82;;
47287;SDS011;33020;53.008;13.558;2023-06-26T05:32:44;11.20;;;10.10;;
47287;SDS011;33020;53.008;13.558;2023-06-26T05:35:13;10.73;;;9.73;;
47287;SDS011;33020;53.008;13.558;2023-06-26T05:37:40;11.55;;;10.45;;
47287;SDS011;33020;53.008;13.558;2023-06-26T05:40:08;12.18;;;11.00;;
47287;SDS011;33020;53.008;13.558;2023-06-26T05:42:35;11.20;;;10.10;;
47287;SDS011;33020;53.008;13.558;2023-06-26T05:45:02;11.15;;;10.05;;
47287;SDS011;33020;53.008;13.558;2023-06-26T05:47:28;10.77;;;9.75;;
47287;SDS011;33020;53.008;13.558;2023-06-26T05:49:55;10.65;;;9.65;;
47287;SDS011;33020;53.008;13.558;2023-06-26T05:52:22;10.93;;;9.20;;
47287;SDS011;33020;53.008;13.558;2023-06-26T05:54:49;10.50;;;9.05;;
47287;SDS011;33020;53.008;13.558;2023-06-26T05:57:16;9.07;;;8.18;;
47287;SDS011;33020;53.008;13.558;2023-06-26T05:59:43;8.73;;;7.82;;
47287;SDS011;33020;53.008;13.558;2023-06-26T06:02:11;9.80;;;8.20;;
47287;SDS011;33020;53.008;13.558;2023-06-26T06:04:38;9.48;;;8.68;;
47287;SDS011;33020;53.008;13.558;2023-06-26T06:07:05;9.73;;;8.70;;
47287;SDS011;33020;53.008;13.558;2023-06-26T06:09:32;9.93;;;8.35;;
47287;SDS011;33020;53.008;13.558;2023-06-26T06:12:00;10.05;;;9.13;;
47287;SDS011;33020;53.008;13.558;2023-06-26T06:14:27;10.55;;;8.80;;
47287;SDS011;33020;53.008;13.558;2023-06-26T06:16:54;9.80;;;8.80;;
47287;SDS011;33020;53.008;13.558;2023-06-26T06:19:22;10.20;;;9.30;;
47287;SDS011;33020;53.008;13.558;2023-06-26T06:21:49;10.45;;;9.48;;
47287;SDS011;33020;53.008;13.558;2023-06-26T06:24:16;9.10;;;8.32;;
47287;SDS011;33020;53.008;13.558;2023-06-26T06:26:43;10.18;;;9.27;;
47287;SDS011;33020;53.008;13.558;2023-06-26T06:29:09;10.27;;;9.20;;
47287;SDS011;33020;53.008;13.558;2023-06-26T06:31:36;9.18;;;8.27;;
47287;SDS011;33020;53.008;13.558;2023-06-26T06:34:03;9.77;;;8.77;;
47287;SDS011;33020;53.008;13.558;2023-06-26T06:36:30;10.52;;;9.43;;
47287;SDS011;33020;53.008;13.558;2023-06-26T06:38:57;10.80;;;9.73;;
47287;SDS011;33020;53.008;13.558;2023-06-26T06:41:24;10.68;;;9.50;;
47287;SDS011;33020;53.008;13.558;2023-06-26T06:43:50;10.10;;;9.30;;
47287;SDS011;33020;53.008;13.558;2023-06-26T06:46:17;9.63;;;8.73;;
47287;SDS011;33020;53.008;13.558;2023-06-26T06:48:44;10.18;;;9.27;;
47287;SDS011;33020;53.008;13.558;2023-06-26T06:51:10;8.73;;;7.93;;
47287;SDS011;33020;53.008;13.558;2023-06-26T06:53:37;9.48;;;8.23;;
47287;SDS011;33020;53.008;13.558;2023-06-26T06:56:04;10.02;;;9.00;;
47287;SDS011;33020;53.008;13.558;2023-06-26T06:58:30;8.48;;;7.78;;
47287;SDS011;33020;53.008;13.558;2023-06-26T07:01:00;8.93;;;8.13;;
47287;SDS011;33020;53.008;13.558;2023-06-26T07:03:29;8.25;;;7.47;;
47287;SDS011;33020;53.008;13.558;2023-06-26T07:05:56;10.43;;;8.18;;
47287;SDS011;33020;53.008;13.558;2023-06-26T07:08:23;8.63;;;7.93;;
47287;SDS011;33020;53.008;13.558;2023-06-26T07:10:49;8.32;;;7.47;;
47287;SDS011;33020;53.008;13.558;2023-06-26T07:13:17;7.82;;;7.13;;
47287;SDS011;33020;53.008;13.558;2023-06-26T07:15:44;8.20;;;7.43;;
47287;SDS011;33020;53.008;13.558;2023-06-26T07:18:11;7.30;;;6.53;;
47287;SDS011;33020;53.008;13.558;2023-06-26T07:20:38;7.43;;;6.63;;
47287;SDS011;33020;53.008;13.558;2023-06-26T07:23:05;7.25;;;6.53;;
47287;SDS011;33020;53.008;13.558;2023-06-26T07:25:32;7.30;;;6.60;;
47287;SDS011;33020;53.008;13.558;2023-06-26T07:27:58;7.97;;;7.20;;
47287;SDS011;33020;53.008;13.558;2023-06-26T07:30:25;7.78;;;6.82;;
47287;SDS011;33020;53.008;13.558;2023-06-26T07:32:52;6.68;;;6.00;;
47287;SDS011;33020;53.008;13.558;2023-06-26T07:35:19;7.25;;;6.28;;
47287;SDS011;33020;53.008;13.558;2023-06-26T07:37:45;7.00;;;6.38;;
47287;SDS011;33020;53.008;13.558;2023-06-26T07:40:12;6.38;;;5.78;;
47287;SDS011;33020;53.008;13.558;2023-06-26T07:42:39;7.05;;;6.45;;
47287;SDS011;33020;53.008;13.558;2023-06-26T07:45:06;5.97;;;5.35;;
47287;SDS011;33020;53.008;13.558;2023-06-26T07:47:37;5.97;;;5.47;;
47287;SDS011;33020;53.008;13.558;2023-06-26T07:50:04;6.22;;;5.63;;
47287;SDS011;33020;53.008;13.558;2023-06-26T07:52:31;6.65;;;6.05;;
47287;SDS011;33020;53.008;13.558;2023-06-26T07:54:58;5.93;;;5.43;;
47287;SDS011;33020;53.008;13.558;2023-06-26T07:57:24;8.55;;;6.07;;
47287;SDS011;33020;53.008;13.558;2023-06-26T07:59:51;10.70;;;6.47;;
47287;SDS011;33020;53.008;13.558;2023-06-26T08:02:18;6.90;;;6.30;;
47287;SDS011;33020;53.008;13.558;2023-06-26T08:04:44;7.00;;;6.18;;
47287;SDS011;33020;53.008;13.558;2023-06-26T08:07:11;6.70;;;5.55;;
47287;SDS011;33020;53.008;13.558;2023-06-26T08:09:40;6.45;;;5.85;;
47287;SDS011;33020;53.008;13.558;2023-06-26T08:12:06;6.57;;;6.07;;
47287;SDS011;33020;53.008;13.558;2023-06-26T08:14:35;6.28;;;5.78;;
47287;SDS011;33020;53.008;13.558;2023-06-26T08:17:01;6.03;;;5.53;;
47287;SDS011;33020;53.008;13.558;2023-06-26T08:19:28;6.18;;;5.68;;
47287;SDS011;33020;53.008;13.558;2023-06-26T08:21:55;6.30;;;5.70;;
47287;SDS011;33020;53.008;13.558;2023-06-26T08:24:22;6.55;;;5.93;;
47287;SDS011;33020;53.008;13.558;2023-06-26T08:26:48;6.32;;;5.72;;
47287;SDS011;33020;53.008;13.558;2023-06-26T08:29:15;7.22;;;5.93;;
47287;SDS011;33020;53.008;13.558;2023-06-26T08:31:42;6.60;;;6.00;;
47287;SDS011;33020;53.008;13.558;2023-06-26T08:34:09;6.90;;;5.80;;
47287;SDS011;33020;53.008;13.558;2023-06-26T08:36:36;5.90;;;5.40;;
47287;SDS011;33020;53.008;13.558;2023-06-26T08:39:03;6.50;;;5.80;;
47287;SDS011;33020;53.008;13.558;2023-06-26T08:41:32;6.13;;;5.15;;
47287;SDS011;33020;53.008;13.558;2023-06-26T08:43:58;5.75;;;5.25;;
47287;SDS011;33020;53.008;13.558;2023-06-26T08:46:25;6.38;;;5.78;;
47287;SDS011;33020;53.008;13.558;2023-06-26T08:48:54;6.05;;;5.45;;
47287;SDS011;33020;53.008;13.558;2023-06-26T08:51:23;6.00;;;5.40;;
47287;SDS011;33020;53.008;13.558;2023-06-26T08:53:58;6.40;;;5.43;;
47287;SDS011;33020;53.008;13.558;2023-06-26T08:56:35;5.82;;;5.32;;
47287;SDS011;33020;53.008;13.558;2023-06-26T08:59:04;6.47;;;5.43;;
47287;SDS011;33020;53.008;13.558;2023-06-26T09:01:31;6.82;;;5.70;;
47287;SDS011;33020;53.008;13.558;2023-06-26T09:03:58;5.53;;;5.03;;
47287;SDS011;33020;53.008;13.558;2023-06-26T09:06:25;6.03;;;5.43;;
47287;SDS011;33020;53.008;13.558;2023-06-26T09:08:52;4.82;;;4.43;;
47287;SDS011;33020;53.008;13.558;2023-06-26T09:11:18;5.93;;;5.43;;
47287;SDS011;33020;53.008;13.558;2023-06-26T09:13:45;6.05;;;5.50;;
47287;SDS011;33020;53.008;13.558;2023-06-26T09:16:14;5.85;;;5.28;;
47287;SDS011;33020;53.008;13.558;2023-06-26T09:18:41;5.88;;;5.38;;
47287;SDS011;33020;53.008;13.558;2023-06-26T09:21:09;6.38;;;5.78;;
47287;SDS011;33020;53.008;13.558;2023-06-26T09:23:36;7.18;;;6.03;;
47287;SDS011;33020;53.008;13.558;2023-06-26T09:26:03;6.45;;;5.80;;
47287;SDS011;33020;53.008;13.558;2023-06-26T09:28:31;6.20;;;5.60;;
47287;SDS011;33020;53.008;13.558;2023-06-26T09:31:05;6.60;;;6.00;;
47287;SDS011;33020;53.008;13.558;2023-06-26T09:33:35;6.70;;;6.10;;
47287;SDS011;33020;53.008;13.558;2023-06-26T09:36:06;5.93;;;5.43;;
47287;SDS011;33020;53.008;13.558;2023-06-26T09:38:38;6.30;;;5.80;;
47287;SDS011;33020;53.008;13.558;2023-06-26T09:41:05;6.30;;;5.68;;
47287;SDS011;33020;53.008;13.558;2023-06-26T09:43:32;6.40;;;5.80;;
47287;SDS011;33020;53.008;13.558;2023-06-26T09:46:00;6.47;;;5.88;;
47287;SDS011;33020;53.008;13.558;2023-06-26T09:48:27;6.57;;;5.97;;
47287;SDS011;33020;53.008;13.558;2023-06-26T09:50:55;6.90;;;6.30;;
47287;SDS011;33020;53.008;13.558;2023-06-26T09:53:37;6.50;;;5.87;;
47287;SDS011;33020;53.008;13.558;2023-06-26T09:56:05;6.43;;;5.78;;
47287;SDS011;33020;53.008;13.558;2023-06-26T09:58:32;6.82;;;6.13;;
47287;SDS011;33020;53.008;13.558;2023-06-26T10:00:59;6.03;;;5.43;;
47287;SDS011;33020;53.008;13.558;2023-06-26T10:03:26;6.45;;;5.85;;
47287;SDS011;33020;53.008;13.558;2023-06-26T10:05:53;6.07;;;5.55;;
47287;SDS011;33020;53.008;13.558;2023-06-26T10:08:21;6.65;;;6.05;;
47287;SDS011;33020;53.008;13.558;2023-06-26T10:10:47;6.20;;;5.60;;
47287;SDS011;33020;53.008;13.558;2023-06-26T10:13:15;6.20;;;5.60;;
47287;SDS011;33020;53.008;13.558;2023-06-26T10:15:48;8.27;;;6.07;;
47287;SDS011;33020;53.008;13.558;2023-06-26T10:18:17;6.35;;;5.50;;
47287;SDS011;33020;53.008;13.558;2023-06-26T10:20:48;6.57;;;5.60;;
47287;SDS011;33020;53.008;13.558;2023-06-26T10:23:15;5.45;;;4.95;;
47287;SDS011;33020;53.008;13.558;2023-06-26T10:25:44;5.85;;;5.35;;
47287;SDS011;33020;53.008;13.558;2023-06-26T10:28:12;5.40;;;4.90;;
47287;SDS011;33020;53.008;13.558;2023-06-26T10:30:39;6.78;;;5.80;;
47287;SDS011;33020;53.008;13.558;2023-06-26T10:33:07;5.88;;;5.30;;
47287;SDS011;33020;53.008;13.558;2023-06-26T10:35:40;7.32;;;5.68;;
47287;SDS011;33020;53.008;13.558;2023-06-26T10:38:08;5.57;;;5.10;;
47287;SDS011;33020;53.008;13.558;2023-06-26T10:40:42;5.25;;;4.75;;
47287;SDS011;33020;53.008;13.558;2023-06-26T10:43:12;6.05;;;5.55;;
47287;SDS011;33020;53.008;13.558;2023-06-26T10:45:46;5.90;;;4.80;;
47287;SDS011;33020;53.008;13.558;2023-06-26T10:48:18;5.80;;;5.30;;
47287;SDS011;33020;53.008;13.558;2023-06-26T10:50:48;5.65;;;4.80;;
47287;SDS011;33020;53.008;13.558;2023-06-26T10:53:21;5.57;;;5.07;;
47287;SDS011;33020;53.008;13.558;2023-06-26T10:55:58;6.70;;;5.50;;
47287;SDS011;33020;53.008;13.558;2023-06-26T11:03:38;6.07;;;5.15;;
47287;SDS011;33020;53.008;13.558;2023-06-26T11:06:08;5.95;;;5.38;;
47287;SDS011;33020;53.008;13.558;2023-06-26T11:09:13;6.17;;;5.57;;
47287;SDS011;33020;53.008;13.558;2023-06-26T11:14:20;6.30;;;5.70;;
47287;SDS011;33020;53.008;13.558;2023-06-26T11:16:48;5.75;;;5.25;;
47287;SDS011;33020;53.008;13.558;2023-06-26T11:19:16;6.22;;;5.60;;
47287;SDS011;33020;53.008;13.558;2023-06-26T11:21:44;6.28;;;5.68;;
47287;SDS011;33020;53.008;13.558;2023-06-26T11:24:12;5.95;;;5.45;;
47287;SDS011;33020;53.008;13.558;2023-06-26T11:26:40;5.97;;;5.38;;
47287;SDS011;33020;53.008;13.558;2023-06-26T11:29:07;5.75;;;5.18;;
47287;SDS011;33020;53.008;13.558;2023-06-26T11:31:35;6.07;;;5.47;;
47287;SDS011;33020;53.008;13.558;2023-06-26T11:34:05;5.43;;;4.93;;
47287;SDS011;33020;53.008;13.558;2023-06-26T11:36:38;6.25;;;5.60;;
47287;SDS011;33020;53.008;13.558;2023-06-26T11:39:05;5.80;;;5.20;;
47287;SDS011;33020;53.008;13.558;2023-06-26T11:41:33;5.53;;;5.03;;
47287;SDS011;33020;53.008;13.558;2023-06-26T11:44:01;5.70;;;5.13;;
47287;SDS011;33020;53.008;13.558;2023-06-26T11:46:30;5.75;;;5.25;;
47287;SDS011;33020;53.008;13.558;2023-06-26T11:48:57;6.45;;;5.85;;
47287;SDS011;33020;53.008;13.558;2023-06-26T11:51:28;6.10;;;5.25;;
47287;SDS011;33020;53.008;13.558;2023-06-26T11:53:55;5.63;;;5.13;;
47287;SDS011;33020;53.008;13.558;2023-06-26T11:56:21;6.20;;;5.30;;
47287;SDS011;33020;53.008;13.558;2023-06-26T11:58:56;5.95;;;5.35;;
47287;SDS011;33020;53.008;13.558;2023-06-26T12:01:39;6.25;;;5.72;;
47287;SDS011;33020;53.008;13.558;2023-06-26T12:04:08;5.45;;;4.95;;
47287;SDS011;33020;53.008;13.558;2023-06-26T12:06:39;6.20;;;5.38;;
47287;SDS011;33020;53.008;13.558;2023-06-26T12:09:09;5.75;;;5.25;;
47287;SDS011;33020;53.008;13.558;2023-06-26T12:11:38;5.80;;;5.25;;
47287;SDS011;33020;53.008;13.558;2023-06-26T12:14:06;5.60;;;5.10;;
47287;SDS011;33020;53.008;13.558;2023-06-26T12:16:33;5.68;;;5.18;;
47287;SDS011;33020;53.008;13.558;2023-06-26T12:19:02;6.22;;;5.72;;
47287;SDS011;33020;53.008;13.558;2023-06-26T12:21:33;6.50;;;5.78;;
47287;SDS011;33020;53.008;13.558;2023-06-26T12:24:17;6.80;;;6.03;;
47287;SDS011;33020;53.008;13.558;2023-06-26T12:26:51;5.80;;;5.30;;
47287;SDS011;33020;53.008;13.558;2023-06-26T12:29:32;5.32;;;4.82;;
47287;SDS011;33020;53.008;13.558;2023-06-26T12:31:59;5.90;;;5.40;;
47287;SDS011;33020;53.008;13.558;2023-06-26T12:34:33;5.65;;;5.15;;
47287;SDS011;33020;53.008;13.558;2023-06-26T12:37:01;6.07;;;5.57;;
47287;SDS011;33020;53.008;13.558;2023-06-26T12:39:29;7.18;;;5.28;;
47287;SDS011;33020;53.008;13.558;2023-06-26T12:42:13;6.18;;;5.50;;
47287;SDS011;33020;53.008;13.558;2023-06-26T12:44:40;5.85;;;5.25;;
47287;SDS011;33020;53.008;13.558;2023-06-26T12:47:07;6.28;;;5.72;;
47287;SDS011;33020;53.008;13.558;2023-06-26T12:49:35;6.60;;;5.97;;
47287;SDS011;33020;53.008;13.558;2023-06-26T12:52:06;6.05;;;5.55;;
47287;SDS011;33020;53.008;13.558;2023-06-26T12:54:34;6.47;;;5.65;;
47287;SDS011;33020;53.008;13.558;2023-06-26T12:57:01;6.38;;;5.70;;
47287;SDS011;33020;53.008;13.558;2023-06-26T12:59:30;6.15;;;5.60;;
47287;SDS011;33020;53.008;13.558;2023-06-26T13:01:58;5.70;;;5.20;;
47287;SDS011;33020;53.008;13.558;2023-06-26T13:04:25;6.50;;;5.90;;
47287;SDS011;33020;53.008;13.558;2023-06-26T13:06:52;6.22;;;5.70;;
47287;SDS011;33020;53.008;13.558;2023-06-26T13:09:21;5.93;;;5.43;;
47287;SDS011;33020;53.008;13.558;2023-06-26T13:11:54;6.00;;;5.40;;
47287;SDS011;33020;53.008;13.558;2023-06-26T13:14:21;5.75;;;5.22;;
47287;SDS011;33020;53.008;13.558;2023-06-26T13:16:48;6.00;;;5.50;;
47287;SDS011;33020;53.008;13.558;2023-06-26T13:19:15;5.85;;;5.35;;
47287;SDS011;33020;53.008;13.558;2023-06-26T13:21:42;6.47;;;5.85;;
47287;SDS011;33020;53.008;13.558;2023-06-26T13:24:09;6.97;;;6.22;;
47287;SDS011;33020;53.008;13.558;2023-06-26T13:26:35;8.95;;;6.10;;
47287;SDS011;33020;53.008;13.558;2023-06-26T13:29:04;6.47;;;5.88;;
47287;SDS011;33020;53.008;13.558;2023-06-26T13:31:31;6.13;;;5.53;;
47287;SDS011;33020;53.008;13.558;2023-06-26T13:33:59;6.88;;;6.00;;
47287;SDS011;33020;53.008;13.558;2023-06-26T13:36:26;6.47;;;5.85;;
47287;SDS011;33020;53.008;13.558;2023-06-26T13:38:53;6.40;;;5.75;;
47287;SDS011;33020;53.008;13.558;2023-06-26T13:41:23;6.65;;;6.07;;
47287;SDS011;33020;53.008;13.558;2023-06-26T13:43:50;6.22;;;5.60;;
47287;SDS011;33020;53.008;13.558;2023-06-26T13:46:18;6.07;;;5.57;;
47287;SDS011;33020;53.008;13.558;2023-06-26T13:48:45;5.72;;;5.22;;
47287;SDS011;33020;53.008;13.558;2023-06-26T13:51:12;5.65;;;5.15;;
47287;SDS011;33020;53.008;13.558;2023-06-26T13:53:38;9.38;;;6.50;;
47287;SDS011;33020;53.008;13.558;2023-06-26T13:56:05;7.60;;;6.45;;
47287;SDS011;33020;53.008;13.558;2023-06-26T13:58:34;6.43;;;5.82;;
47287;SDS011;33020;53.008;13.558;2023-06-26T14:01:02;7.28;;;6.22;;
47287;SDS011;33020;53.008;13.558;2023-06-26T14:03:29;6.90;;;6.18;;
47287;SDS011;33020;53.008;13.558;2023-06-26T14:05:56;6.43;;;5.82;;
47287;SDS011;33020;53.008;13.558;2023-06-26T14:08:22;6.18;;;5.57;;
47287;SDS011;33020;53.008;13.558;2023-06-26T14:10:49;7.18;;;6.57;;
47287;SDS011;33020;53.008;13.558;2023-06-26T14:13:16;6.10;;;5.50;;
47287;SDS011;33020;53.008;13.558;2023-06-26T14:15:45;6.68;;;5.97;;
47287;SDS011;33020;53.008;13.558;2023-06-26T14:18:11;7.93;;;5.50;;
47287;SDS011;33020;53.008;13.558;2023-06-26T14:20:39;7.65;;;4.78;;
47287;SDS011;33020;53.008;13.558;2023-06-26T14:23:07;6.03;;;3.53;;
47287;SDS011;33020;53.008;13.558;2023-06-26T14:25:33;6.57;;;3.58;;
47287;SDS011;33020;53.008;13.558;2023-06-26T14:28:00;7.18;;;4.10;;
47287;SDS011;33020;53.008;13.558;2023-06-26T14:30:27;6.60;;;4.22;;
47287;SDS011;33020;53.008;13.558;2023-06-26T14:32:54;7.88;;;4.55;;
47287;SDS011;33020;53.008;13.558;2023-06-26T14:35:20;9.07;;;5.20;;
47287;SDS011;33020;53.008;13.558;2023-06-26T14:37:48;11.77;;;5.93;;
47287;SDS011;33020;53.008;13.558;2023-06-26T14:40:16;12.18;;;5.88;;
47287;SDS011;33020;53.008;13.558;2023-06-26T14:42:43;8.55;;;5.70;;
47287;SDS011;33020;53.008;13.558;2023-06-26T14:45:12;7.35;;;5.80;;
47287;SDS011;33020;53.008;13.558;2023-06-26T14:47:41;8.82;;;5.57;;